首页
METAR-TAF:

METAR-TAF

机场 :

多尼戈爾, 爱尔兰

纬度: 55-02-39N, 经度: 8-20-28W, 海拔: 9米

当前天气观测

该预报发布于30分钟前的15:00 UTC
风速18节,风向南转西南
温度 14°C
湿度 72%
气压 1028 hPa
能见度10公里或以上
散云层高于2500英尺
阴天层高于2900英尺

METAR: EIDL 251500Z 20018KT 9999 SCT025 OVC029 14/09 Q1028

时间: 16:30 (15:30 UTC)

预报

该预报发布于1小时和30分钟前的14:00 UTC
预报有效从25日的 15点(UTC)到 25日的 24点(UTC)
风速22节,风向,有时为32节阵风
能见度10公里或以上
少量云层高于1500英尺
散云层高于2500英尺
成为
从 25日的 15点(UTC)到 25日的 17点(UTC)
风速15节,风向南转西南
多云层高于1000英尺
小雨
短暂存在
从 25日的 18点(UTC)到 25日的 23点(UTC)
能見度: 4000
多云层高于400英尺
小雨, 毛毛雨
成为
从 25日的 19点(UTC)到 25日的 21点(UTC)
风速10节,风向西南
几率 30% :
短暂存在
从 25日的 20点(UTC)到 25日的 23点(UTC)
能見度: 2000
多云层高于200英尺
成为
从 25日的 22点(UTC)到 25日的 24点(UTC)
能见度10公里或以上
少量云层高于1000英尺
多云层高于2500英尺

TAF: EIDL 251400Z 2515/2524 19022G32KT 9999 FEW015 SCT025 BECMG 2515/2517 20015KT -RA BKN010 TEMPO 2518/2523 4000 -RADZ BKN004 BECMG 2519/2521 23010KT PROB30 TEMPO 2520/2523 2000 BKN002 BECMG 2522/2524 9999 NSW FEW010 BKN025

超过4000个机场的气象观测和天气预报(METAR&TAF报告)。

可查询的气象台以黄色和红色小点在地图上表示。

将鼠标移到小点上方,可查看气象台名称。

然后点击查看天气观测和预报。

如需切换地图:点击带黑十字的绿色按钮放大地图;点击带横线的绿色按钮缩小地图;或者点击绿色箭头查看邻近地区的地图。


METAR-TAF: